Time;durP1;ratioP1;P1;durP2;ratioP2;P2;SDS_P1;SDS_P2;PMS_P1;PMS_P2;Temp;Humidity;BMP_temperature;BMP_pressure;BME280_temperature;BME280_humidity;BME280_pressure;Samples;Min_cycle;Max_cycle;Signal;HPM_P1;HPM_P2
2022/08/18 00:01:12;;;;;;;;;16.00;16.00;;;;;21.77;52.88;100756.03;5082200;28;45321;-57
2022/08/18 00:03:40;;;;;;;;;14.25;14.25;;;;;21.73;52.61;100763.38;5067005;27;45387;-57
2022/08/18 00:06:05;;;;;;;;;15.75;15.25;;;;;21.72;53.00;100764.34;5062036;28;45315;-57
2022/08/18 00:08:31;;;;;;;;;20.50;16.25;;;;;21.68;52.65;100757.47;5071443;28;46659;-58
2022/08/18 00:10:57;;;;;;;;;22.75;17.75;;;;;21.65;52.67;100769.19;5061833;28;45486;-57
2022/08/18 00:13:22;;;;;;;;;22.25;20.75;;;;;21.65;52.47;100757.66;5062089;28;45288;-58
2022/08/18 00:15:49;;;;;;;;;17.75;16.50;;;;;21.62;53.04;100756.00;5061967;28;45288;-58
2022/08/18 00:18:15;;;;;;;;;17.50;17.25;;;;;21.61;52.92;100753.44;5061845;28;45298;-58
2022/08/18 00:20:40;;;;;;;;;16.25;15.75;;;;;21.59;53.24;100748.19;5061836;28;45497;-57
2022/08/18 00:23:05;;;;;;;;;22.50;22.50;;;;;21.61;53.18;100753.44;5061875;28;46869;-57
2022/08/18 00:25:31;;;;;;;;;23.00;20.50;;;;;21.61;52.69;100750.75;5061522;28;46981;-58
2022/08/18 00:27:56;;;;;;;;;22.75;18.25;;;;;21.61;53.19;100753.44;5060270;28;46256;-57
2022/08/18 00:30:22;;;;;;;;;18.75;18.00;;;;;21.59;52.88;100759.72;5061734;28;45264;-57
2022/08/18 00:32:55;;;;;;;;;16.00;14.00;;;;;21.59;53.13;100753.53;5061657;28;45407;-57
2022/08/18 00:35:33;;;;;;;;;18.00;18.00;;;;;21.60;52.77;100760.59;5061618;28;45247;-58
2022/08/18 00:38:01;;;;;;;;;15.00;15.00;;;;;21.60;53.16;100760.59;5061311;28;45477;-58
2022/08/18 00:40:40;;;;;;;;;18.75;18.25;;;;;21.60;52.89;100757.94;5061114;28;45327;-57
2022/08/18 00:43:12;;;;;;;;;17.25;15.00;;;;;21.60;53.39;100757.94;5061972;28;45408;-57
2022/08/18 00:45:40;;;;;;;;;18.00;16.00;;;;;21.57;53.13;100756.31;5061449;28;45243;-58
2022/08/18 00:48:08;;;;;;;;;18.00;17.75;;;;;21.59;52.86;100758.88;5061277;28;47239;-58
2022/08/18 00:50:50;;;;;;;;;19.25;15.75;;;;;21.59;53.44;100759.72;5062111;28;45284;-58
2022/08/18 00:53:28;;;;;;;;;15.00;15.00;;;;;21.58;53.30;100752.69;5081865;28;45315;-58
2022/08/18 00:56:00;;;;;;;;;19.75;18.50;;;;;21.58;52.97;100758.03;5081283;28;45332;-57
2022/08/18 00:58:35;;;;;;;;;17.25;17.25;;;;;21.57;53.41;100769.66;5081596;28;45407;-57
2022/08/18 01:01:04;;;;;;;;;19.25;15.00;;;;;21.56;53.29;100759.91;5081230;27;45410;-57
2022/08/18 01:03:32;;;;;;;;;16.00;16.00;;;;;21.53;53.36;100761.88;5066534;27;45327;-58
2022/08/18 01:06:02;;;;;;;;;19.00;17.25;;;;;21.54;53.17;100766.28;5061184;28;45553;-58
2022/08/18 01:08:28;;;;;;;;;17.75;17.75;;;;;21.52;53.27;100773.53;5060945;28;46426;-58
2022/08/18 01:10:54;;;;;;;;;18.00;17.50;;;;;21.50;53.40;100770.09;5060839;28;45438;-57
2022/08/18 01:13:19;;;;;;;;;17.75;16.25;;;;;21.48;53.80;100770.16;5059851;28;45396;-57
2022/08/18 01:15:45;;;;;;;;;20.25;17.75;;;;;21.47;53.69;100773.81;5061133;28;45410;-57
2022/08/18 01:23:53;;;;;;;;;16.00;15.25;;;;;21.45;53.60;100766.84;5060800;28;45272;-57
2022/08/18 01:26:21;;;;;;;;;16.25;15.00;;;;;21.45;54.08;100756.16;5060780;28;45473;-57
2022/08/18 01:28:48;;;;;;;;;19.75;16.25;;;;;21.43;53.39;100754.44;5060694;28;46189;-57
2022/08/18 01:31:36;;;;;;;;;15.00;14.75;;;;;21.42;53.69;100758.03;5060479;28;45458;-57
2022/08/18 01:34:03;;;;;;;;;18.00;16.75;;;;;21.45;53.92;100758.81;5072007;28;45324;-57
2022/08/18 01:36:29;;;;;;;;;20.50;18.25;;;;;21.43;53.63;100764.25;5061528;28;46252;-57
2022/08/18 01:38:55;;;;;;;;;18.25;16.00;;;;;21.42;53.65;100757.16;5060338;28;45561;-58
2022/08/18 01:41:21;;;;;;;;;19.75;18.75;;;;;21.43;53.63;100762.44;5060451;28;45276;-57
2022/08/18 01:43:48;;;;;;;;;17.00;16.50;;;;;21.42;53.87;100760.72;5060690;28;45261;-57
2022/08/18 01:46:18;;;;;;;;;21.75;18.75;;;;;21.39;54.14;100765.38;5060417;28;45349;-57
2022/08/18 01:48:47;;;;;;;;;19.50;17.75;;;;;21.40;53.59;100773.31;5068178;28;47182;-57
2022/08/18 01:51:13;;;;;;;;;18.75;18.00;;;;;21.38;54.00;100777.91;5066612;28;45336;-57
2022/08/18 01:53:38;;;;;;;;;20.00;15.50;;;;;21.38;54.19;100774.34;5080988;27;45377;-57
2022/08/18 01:56:05;;;;;;;;;17.25;16.75;;;;;21.36;54.00;100771.78;5059231;28;45590;-57
2022/08/18 01:58:35;;;;;;;;;18.75;15.75;;;;;21.33;53.74;100769.25;5073937;28;46291;-57
2022/08/18 02:01:01;;;;;;;;;17.00;15.25;;;;;21.35;53.74;100775.38;5080347;28;45475;-57
2022/08/18 02:03:34;;;;;;;;;15.25;15.25;;;;;21.32;53.86;100762.22;5066723;27;45240;-57
2022/08/18 02:06:01;;;;;;;;;16.75;16.50;;;;;21.28;53.86;100760.66;5060199;28;45499;-57
2022/08/18 02:08:28;;;;;;;;;19.50;17.50;;;;;21.30;54.24;100773.94;5060045;28;46583;-57
2022/08/18 02:10:53;;;;;;;;;19.25;17.25;;;;;21.30;54.29;100776.63;5060001;28;45373;-58
2022/08/18 02:13:19;;;;;;;;;16.25;16.25;;;;;21.28;53.78;100774.03;5060175;28;45286;-58
2022/08/18 02:15:45;;;;;;;;;18.75;17.00;;;;;21.25;53.96;100761.69;5060381;28;45271;-57
2022/08/18 02:18:16;;;;;;;;;20.25;18.00;;;;;21.24;54.05;100762.69;5059927;28;46308;-58
2022/08/18 02:20:42;;;;;;;;;19.25;17.75;;;;;21.22;53.92;100767.25;5059805;28;45252;-57
2022/08/18 02:23:08;;;;;;;;;19.25;16.75;;;;;21.20;54.48;100765.59;5060028;28;45228;-57
2022/08/18 02:25:33;;;;;;;;;17.25;17.25;;;;;21.18;54.24;100771.06;5059774;28;45465;-57
2022/08/18 02:27:58;;;;;;;;;18.75;17.00;;;;;21.18;54.28;100770.16;5059669;28;45323;-57
2022/08/18 02:30:24;;;;;;;;;16.75;15.50;;;;;21.16;54.17;100764.06;5060159;28;45413;-57
2022/08/18 02:32:49;;;;;;;;;18.00;18.00;;;;;21.13;54.19;100767.78;5058908;28;45291;-57
2022/08/18 02:35:15;;;;;;;;;19.00;18.75;;;;;21.09;54.78;100769.78;5059846;28;45418;-57
2022/08/18 02:37:41;;;;;;;;;17.25;16.50;;;;;21.07;54.21;100762.81;5059658;28;46150;-58
2022/08/18 02:40:07;;;;;;;;;15.00;13.75;;;;;21.04;54.60;100770.97;5059695;28;45323;-59
2022/08/18 02:42:33;;;;;;;;;18.50;16.75;;;;;21.03;54.35;100769.25;5059653;28;45301;-59
2022/08/18 02:44:58;;;;;;;;;16.50;16.50;;;;;21.01;54.70;100768.50;5059722;28;45511;-58
2022/08/18 02:47:24;;;;;;;;;18.00;18.00;;;;;20.99;54.83;100776.56;5059575;28;46204;-58
2022/08/18 02:49:49;;;;;;;;;18.50;18.50;;;;;20.98;54.76;100769.53;5059710;28;45224;-57
2022/08/18 02:52:16;;;;;;;;;21.00;18.25;;;;;20.98;54.62;100769.53;5075108;28;45204;-57
2022/08/18 02:54:42;;;;;;;;;18.25;17.75;;;;;20.98;54.47;100764.19;5079777;28;45454;-58
2022/08/18 02:57:10;;;;;;;;;13.50;13.50;;;;;21.00;54.87;100769.44;5079918;28;45398;-57
2022/08/18 02:59:37;;;;;;;;;18.25;16.50;;;;;20.99;54.96;100776.56;5079735;28;45354;-57
2022/08/18 03:02:05;;;;;;;;;21.00;19.50;;;;;21.01;54.69;100782.69;5077340;28;45253;-57
2022/08/18 03:04:31;;;;;;;;;26.00;20.75;;;;;21.00;55.15;100775.63;5059079;28;45563;-57
2022/08/18 03:07:00;;;;;;;;;15.50;14.00;;;;;21.00;54.51;100775.63;5058168;28;47981;-57
2022/08/18 03:09:25;;;;;;;;;21.75;18.75;;;;;21.00;55.21;100772.97;5059240;28;45268;-58
2022/08/18 03:11:52;;;;;;;;;16.00;16.00;;;;;21.01;54.93;100777.34;5059528;28;45291;-58
2022/08/18 03:14:18;;;;;;;;;20.25;17.25;;;;;21.01;55.63;100774.69;5059623;28;45411;-58
2022/08/18 03:16:46;;;;;;;;;22.25;20.25;;;;;21.03;55.20;100772.78;5059046;28;45256;-58
2022/08/18 03:19:16;;;;;;;;;21.50;19.25;;;;;21.03;55.05;100767.47;5059365;28;45399;-58
2022/08/18 03:21:43;;;;;;;;;14.00;12.00;;;;;21.05;55.13;100770.88;5059437;28;45434;-58
2022/08/18 03:24:10;;;;;;;;;17.75;15.75;;;;;21.04;55.37;100763.84;5059010;28;45501;-58
2022/08/18 03:26:40;;;;;;;;;23.00;20.75;;;;;21.04;55.15;100761.16;5059017;28;46205;-58
2022/08/18 03:29:08;;;;;;;;;21.00;21.00;;;;;21.05;54.81;100765.53;5059229;28;45340;-57
2022/08/18 03:31:36;;;;;;;;;20.75;20.00;;;;;21.05;54.78;100764.69;5059125;28;45288;-57
2022/08/18 03:34:03;;;;;;;;;21.00;18.75;;;;;21.03;55.28;100762.13;5059151;28;45198;-58
2022/08/18 03:36:32;;;;;;;;;24.25;20.50;;;;;21.06;54.78;100761.91;5058980;28;45490;-57
2022/08/18 03:39:00;;;;;;;;;19.25;16.50;;;;;21.07;55.09;100763.66;5058747;28;45366;-58
2022/08/18 03:41:27;;;;;;;;;20.50;20.00;;;;;21.07;55.32;100763.66;5058883;28;45291;-57
2022/08/18 03:43:53;;;;;;;;;22.00;20.25;;;;;21.07;55.10;100762.81;5061258;28;45325;-57
2022/08/18 03:46:20;;;;;;;;;23.00;21.00;;;;;21.07;54.88;100760.13;5062239;28;45973;-58
2022/08/18 03:48:48;;;;;;;;;23.25;20.50;;;;;21.07;55.17;100752.13;5062378;28;45259;-57
2022/08/18 03:51:17;;;;;;;;;20.75;20.25;;;;;21.07;54.86;100758.31;5068875;28;45295;-57
2022/08/18 03:53:44;;;;;;;;;23.25;20.75;;;;;21.06;54.77;100755.72;5081013;27;45804;-57
2022/08/18 03:56:14;;;;;;;;;20.75;18.25;;;;;21.04;55.30;100753.16;5082526;28;46531;-57
2022/08/18 03:58:44;;;;;;;;;24.50;23.25;;;;;21.03;54.82;100751.44;5082226;28;45244;-57
2022/08/18 04:01:14;;;;;;;;;21.25;21.00;;;;;21.02;54.90;100752.38;5082618;28;45475;-57
2022/08/18 04:03:44;;;;;;;;;24.75;23.50;;;;;21.01;55.30;100755.13;5066269;27;45172;-57
2022/08/18 04:06:17;;;;;;;;;22.75;21.75;;;;;21.03;55.31;100750.53;5062064;28;46121;-57
2022/08/18 04:08:43;;;;;;;;;22.25;20.75;;;;;21.01;54.67;100753.31;5074668;28;45321;-57
2022/08/18 04:11:09;;;;;;;;;24.75;21.25;;;;;21.00;54.59;100753.41;5062120;28;45241;-57
2022/08/18 04:13:38;;;;;;;;;26.00;22.00;;;;;21.00;54.96;100753.41;5060728;28;45461;-57
2022/08/18 04:16:03;;;;;;;;;25.50;23.25;;;;;20.98;54.56;100756.19;5061709;28;46053;-57
2022/08/18 04:18:31;;;;;;;;;17.75;16.50;;;;;20.98;55.13;100756.19;5061926;28;45274;-57
2022/08/18 04:21:00;;;;;;;;;27.25;24.50;;;;;20.97;55.14;100761.59;5062051;28;45268;-57
2022/08/18 04:23:26;;;;;;;;;25.00;23.75;;;;;20.97;55.25;100761.59;5061754;28;45335;-57
2022/08/18 04:25:59;;;;;;;;;21.50;19.25;;;;;20.95;54.53;100756.34;5061475;28;46162;-57
2022/08/18 04:28:25;;;;;;;;;26.00;23.25;;;;;20.94;55.32;100751.94;5061638;28;45378;-57
2022/08/18 04:30:52;;;;;;;;;23.50;23.25;;;;;20.93;54.84;100759.09;5061635;28;45339;-57
2022/08/18 04:33:17;;;;;;;;;25.50;23.50;;;;;20.93;55.11;100759.09;5061854;28;45315;-57
2022/08/18 04:35:42;;;;;;;;;22.50;20.25;;;;;20.92;54.57;100765.38;5061486;28;45244;-57
2022/08/18 04:38:09;;;;;;;;;27.75;24.50;;;;;20.92;55.10;100768.06;5061700;28;45174;-57
2022/08/18 04:40:36;;;;;;;;;25.00;24.00;;;;;20.91;55.04;100779.69;5061377;28;45501;-57
2022/08/18 04:43:01;;;;;;;;;25.25;23.25;;;;;20.90;54.68;100782.44;5061539;28;45299;-57
2022/08/18 04:45:27;;;;;;;;;27.00;25.00;;;;;20.89;55.18;100786.94;5061358;28;45670;-57
2022/08/18 04:47:52;;;;;;;;;23.25;22.75;;;;;20.88;55.01;100779.88;5061393;28;45198;-57
2022/08/18 04:50:18;;;;;;;;;26.25;22.75;;;;;20.85;55.24;100773.84;5061546;28;45438;-57
2022/08/18 04:55:28;;;;;;;;;27.25;20.50;;;;;20.85;55.03;100773.84;5080727;28;45907;-57
2022/08/18 04:57:55;;;;;;;;;27.25;24.75;;;;;20.85;54.65;100777.38;5081475;28;45489;-57
2022/08/18 05:00:20;;;;;;;;;23.75;22.25;;;;;20.85;55.11;100776.50;5081364;28;45448;-57
2022/08/18 05:02:46;;;;;;;;;29.25;28.75;;;;;20.84;54.67;100780.13;5072800;28;45361;-57
2022/08/18 05:05:11;;;;;;;;;22.75;20.75;;;;;20.82;55.24;100780.22;5061003;28;46263;-57
2022/08/18 05:07:43;;;;;;;;;24.75;21.00;;;;;20.81;55.39;100780.31;5061322;28;45284;-57
2022/08/18 05:10:11;;;;;;;;;24.00;24.00;;;;;20.81;55.23;100783.00;5061055;28;45427;-57
2022/08/18 05:12:41;;;;;;;;;30.75;24.25;;;;;20.80;54.86;100787.44;5061021;28;45375;-57
2022/08/18 05:15:07;;;;;;;;;25.00;23.50;;;;;20.76;55.00;100784.09;5060801;28;46132;-57
2022/08/18 05:17:38;;;;;;;;;31.75;29.00;;;;;20.77;54.94;100788.47;5066086;28;45584;-57
2022/08/18 05:20:07;;;;;;;;;26.50;25.75;;;;;20.75;55.27;100789.53;5060894;28;45190;-57
2022/08/18 05:22:42;;;;;;;;;28.00;24.25;;;;;20.76;54.96;100780.56;5059584;28;45831;-57
2022/08/18 05:25:09;;;;;;;;;26.50;22.50;;;;;20.75;55.22;100793.06;5060378;28;47147;-57
2022/08/18 05:27:38;;;;;;;;;28.75;27.75;;;;;20.75;54.84;100798.41;5060833;28;45510;-57
2022/08/18 05:30:06;;;;;;;;;33.00;25.75;;;;;20.75;54.81;100798.41;5060730;28;45256;-57
2022/08/18 05:32:49;;;;;;;;;28.50;27.50;;;;;20.74;54.75;100806.47;5060619;28;45209;-57
2022/08/18 05:35:27;;;;;;;;;32.25;30.25;;;;;20.72;55.43;100806.56;5060618;28;47046;-57
2022/08/18 05:37:56;;;;;;;;;27.50;27.25;;;;;20.70;55.41;100808.44;5060578;28;45373;-57
2022/08/18 05:40:23;;;;;;;;;32.75;29.50;;;;;20.70;54.72;100811.09;5060489;28;45351;-57
2022/08/18 05:42:49;;;;;;;;;26.75;25.25;;;;;20.69;55.43;100811.19;5060355;28;45623;-58
2022/08/18 05:45:18;;;;;;;;;33.00;28.25;;;;;20.68;55.25;100815.69;5060485;28;46071;-57
2022/08/18 05:47:44;;;;;;;;;24.50;24.50;;;;;20.67;55.01;100819.28;5060287;28;45440;-58
2022/08/18 05:50:12;;;;;;;;;34.50;27.50;;;;;20.66;55.04;100820.22;5060522;28;45360;-58
2022/08/18 05:52:56;;;;;;;;;25.50;23.75;;;;;20.65;55.50;100826.50;5078988;28;45234;-58
2022/08/18 05:58:30;;;;;;;;;28.00;28.00;;;;;20.62;54.94;100826.69;5080983;28;45303;-58
2022/08/18 06:01:01;;;;;;;;;30.75;28.50;;;;;20.62;55.42;100834.69;5080102;28;45280;-59
2022/08/18 06:03:45;;;;;;;;;38.50;32.50;;;;;20.64;55.17;100840.81;5066838;27;45279;-57
2022/08/18 06:06:16;;;;;;;;;30.50;27.00;;;;;20.61;54.97;100847.16;5059331;28;46308;-58
2022/08/18 06:08:55;;;;;;;;;32.50;24.25;;;;;20.65;55.46;100853.22;5058500;28;45245;-57
2022/08/18 06:11:20;;;;;;;;;33.25;27.25;;;;;20.65;55.57;100849.69;5060453;28;45233;-58
2022/08/18 06:13:46;;;;;;;;;29.25;28.50;;;;;20.68;55.44;100846.84;5059548;28;45586;-58
2022/08/18 06:16:21;;;;;;;;;31.25;28.00;;;;;20.68;55.18;100847.72;5060039;28;45935;-57
2022/08/18 06:18:58;;;;;;;;;36.00;33.00;;;;;20.72;55.39;100851.97;5059958;28;45576;-58
2022/08/18 06:21:57;;;;;;;;;30.25;29.50;;;;;20.75;55.69;100853.59;5060040;28;45218;-58
2022/08/18 06:24:43;;;;;;;;;36.50;28.75;;;;;20.77;55.40;100857.06;5059825;28;45340;-57
2022/08/18 06:27:43;;;;;;;;;34.25;30.75;;;;;20.81;55.06;100858.59;5068307;28;45467;-58
2022/08/18 06:30:48;;;;;;;;;34.00;30.75;;;;;20.82;55.29;100863.00;5054323;28;45222;-57
2022/08/18 06:33:38;;;;;;;;;31.75;30.25;;;;;20.86;55.00;100861.03;5045889;28;45265;-57
2022/08/18 06:36:18;;;;;;;;;34.75;32.00;;;;;20.89;55.09;100863.50;5059771;28;45403;-57
2022/08/18 06:38:55;;;;;;;;;33.75;30.75;;;;;20.91;55.56;100869.66;5059687;28;45264;-58
2022/08/18 06:41:34;;;;;;;;;34.75;30.25;;;;;20.94;55.70;100873.00;5059570;28;45398;-58
2022/08/18 06:44:03;;;;;;;;;33.75;30.25;;;;;20.98;55.13;100865.69;5059712;28;45280;-57
2022/08/18 06:46:46;;;;;;;;;41.00;33.25;;;;;21.01;55.41;100862.84;5059684;28;45162;-58
2022/08/18 06:49:20;;;;;;;;;35.00;30.75;;;;;21.03;55.56;100860.06;5059704;28;45414;-58
2022/08/18 06:51:46;;;;;;;;;35.50;30.50;;;;;21.08;55.19;100864.22;5070795;28;45339;-58
2022/08/18 06:54:20;;;;;;;;;39.00;33.50;;;;;21.13;55.44;100871.09;5079791;27;45297;-57
2022/08/18 06:56:48;;;;;;;;;36.50;31.75;;;;;21.15;55.75;100864.72;5080018;28;45588;-57
2022/08/18 06:59:19;;;;;;;;;34.00;29.25;;;;;21.18;55.76;100861.00;5079448;28;46398;-57
2022/08/18 07:01:49;;;;;;;;;36.75;32.25;;;;;21.19;55.38;100860.91;5079413;28;45313;-58
2022/08/18 07:04:57;;;;;;;;;34.75;30.25;;;;;21.25;55.60;100870.41;5059794;28;45252;-58
2022/08/18 07:07:35;;;;;;;;;42.75;34.50;;;;;21.25;55.00;100875.75;5059484;28;45218;-57
2022/08/18 07:10:06;;;;;;;;;39.25;33.00;;;;;21.29;55.06;100877.28;5059225;28;46283;-58
2022/08/18 07:12:32;;;;;;;;;34.25;29.75;;;;;21.34;55.63;100877.03;5059462;28;45225;-58
2022/08/18 07:15:00;;;;;;;;;36.25;28.75;;;;;21.36;55.22;100878.69;5070126;28;45240;-58
2022/08/18 07:17:32;;;;;;;;;42.25;33.75;;;;;21.39;55.00;100878.50;5059361;28;45395;-57
2022/08/18 07:20:19;;;;;;;;;42.75;36.75;;;;;21.44;55.24;100883.56;5062720;28;45217;-58
2022/08/18 07:23:02;;;;;;;;;39.25;32.25;;;;;21.48;55.56;100878.91;5061505;28;45330;-58
2022/08/18 07:25:38;;;;;;;;;38.25;33.00;;;;;21.51;55.00;100873.38;5071085;28;45238;-58
2022/08/18 07:28:04;;;;;;;;;38.00;33.00;;;;;21.54;55.03;100867.88;5082927;28;45418;-59
2022/08/18 07:30:36;;;;;;;;;38.00;33.75;;;;;21.59;55.17;100863.16;5082795;28;45410;-58
2022/08/18 07:33:20;;;;;;;;;40.75;33.75;;;;;21.62;54.93;100868.31;5082889;28;45256;-58
2022/08/18 07:35:57;;;;;;;;;37.25;32.50;;;;;21.64;54.85;100869.09;5082934;28;45294;-58
2022/08/18 07:38:48;;;;;;;;;36.75;33.25;;;;;21.66;55.17;100863.63;5083050;28;45240;-58
2022/08/18 07:41:23;;;;;;;;;44.25;34.50;;;;;21.71;55.65;100870.44;5082553;28;45286;-58
2022/08/18 07:43:51;;;;;;;;;40.75;34.00;;;;;21.76;55.26;100875.53;5082815;28;45314;-58
2022/08/18 07:46:22;;;;;;;;;35.75;30.75;;;;;21.79;55.31;100875.34;5061542;28;45233;-58
2022/08/18 07:48:48;;;;;;;;;38.25;34.00;;;;;21.83;55.44;100876.88;5076359;28;45268;-58
2022/08/18 07:51:24;;;;;;;;;42.25;33.75;;;;;21.91;55.17;100879.09;5073706;28;46137;-59
2022/08/18 07:53:59;;;;;;;;;40.75;34.50;;;;;21.95;55.07;100883.31;5082413;28;45241;-58
2022/08/18 07:56:27;;;;;;;;;39.25;33.00;;;;;22.00;55.17;100886.56;5082761;28;45227;-58
2022/08/18 07:59:01;;;;;;;;;42.25;34.00;;;;;22.03;55.02;100875.69;5082412;28;45220;-58
2022/08/18 08:01:40;;;;;;;;;43.25;36.25;;;;;22.12;55.14;100874.25;5082160;28;46194;-58
2022/08/18 08:04:14;;;;;;;;;46.50;37.00;;;;;22.19;54.90;100877.44;5062985;27;45323;-58
2022/08/18 08:06:48;;;;;;;;;44.75;36.00;;;;;22.23;54.76;100874.47;5062338;28;45419;-59
2022/08/18 08:09:46;;;;;;;;;41.50;34.75;;;;;;;;5061797;28;45318;-58
2022/08/18 08:12:29;;;;;;;;;45.25;36.75;;;;;22.36;54.84;100857.66;5037797;28;45586;-58
2022/08/18 08:15:07;;;;;;;;;45.75;37.00;;;;;22.41;54.87;100860.94;5061976;28;45272;-58
2022/08/18 08:17:47;;;;;;;;;44.75;37.50;;;;;22.49;54.83;100860.44;5062181;28;45377;-58
2022/08/18 08:20:36;;;;;;;;;45.50;37.75;;;;;22.55;54.95;100865.44;5061890;28;45358;-58
2022/08/18 08:23:27;;;;;;;;;41.50;34.25;;;;;22.61;54.90;100858.84;5061898;28;46410;-58
2022/08/18 08:25:56;;;;;;;;;46.75;37.75;;;;;22.66;54.73;100854.91;5061893;28;45451;-58
2022/08/18 08:28:47;;;;;;;;;47.50;38.50;;;;;22.75;55.00;100849.94;5061954;28;45374;-58
2022/08/18 08:31:24;;;;;;;;;45.50;38.25;;;;;22.80;54.76;100850.50;5036667;28;45245;-58
2022/08/18 08:34:03;;;;;;;;;46.50;37.75;;;;;22.82;54.91;100845.91;5061809;28;45372;-59
2022/08/18 08:36:36;;;;;;;;;48.25;38.25;;;;;22.89;54.81;100848.09;5061606;28;45296;-58
2022/08/18 08:39:12;;;;;;;;;42.25;35.75;;;;;22.94;54.58;100849.59;5061530;28;45326;-58
2022/08/18 08:41:57;;;;;;;;;40.75;33.50;;;;;23.00;54.53;100852.72;5061524;28;45338;-59
2022/08/18 08:44:34;;;;;;;;;45.00;37.75;;;;;23.04;54.58;100858.75;5061551;28;45509;-58
2022/08/18 08:47:23;;;;;;;;;48.00;39.00;;;;;23.08;54.45;100859.41;5061462;28;45255;-58
2022/08/18 08:49:56;;;;;;;;;48.00;38.50;;;;;23.11;54.72;100865.44;5067430;28;45275;-58
2022/08/18 08:52:44;;;;;;;;;46.00;36.75;;;;;23.19;54.33;100873.00;5077596;28;45193;-58
2022/08/18 08:55:20;;;;;;;;;46.00;37.00;;;;;23.25;54.41;100867.25;5080238;27;46546;-58
2022/08/18 08:57:54;;;;;;;;;41.25;33.75;;;;;23.32;54.34;100871.25;5081881;28;45570;-58
2022/08/18 09:00:20;;;;;;;;;42.50;34.75;;;;;23.37;54.22;100866.44;5081645;28;45397;-58
2022/08/18 09:03:17;;;;;;;;;44.75;35.00;;;;;23.44;54.16;100855.31;5072706;28;45447;-58
2022/08/18 09:06:03;;;;;;;;;42.00;34.25;;;;;23.52;54.19;100864.56;5061026;28;45379;-59
2022/08/18 09:08:47;;;;;;;;;39.25;33.25;;;;;23.61;54.41;100867.56;5060870;28;45311;-58
2022/08/18 09:11:26;;;;;;;;;41.00;34.50;;;;;23.69;54.16;100875.97;5061310;28;45249;-59
2022/08/18 09:13:54;;;;;;;;;33.50;31.50;;;;;23.77;53.99;100870.97;5061148;28;45490;-58
2022/08/18 09:16:44;;;;;;;;;38.50;31.00;;;;;23.87;53.76;100879.22;5069634;28;47362;-58
2022/08/18 09:19:27;;;;;;;;;40.25;33.75;;;;;23.95;53.94;100884.97;5061031;28;45414;-58
2022/08/18 09:22:20;;;;;;;;;39.75;32.50;;;;;24.05;53.82;100887.91;5059613;28;45284;-58
2022/08/18 09:24:49;;;;;;;;;43.25;36.50;;;;;24.13;53.54;100882.00;5060693;28;45288;-58
2022/08/18 09:27:31;;;;;;;;;43.50;36.25;;;;;24.21;52.96;100885.00;5059564;28;47013;-58
2022/08/18 09:29:59;;;;;;;;;42.50;35.75;;;;;24.27;53.31;100883.72;5060807;28;45492;-58
2022/08/18 09:32:24;;;;;;;;;38.50;33.00;;;;;24.36;53.52;100883.06;5060763;28;45342;-58
2022/08/18 09:34:59;;;;;;;;;39.25;33.50;;;;;24.45;52.88;100887.81;5060756;28;45386;-58
2022/08/18 09:37:37;;;;;;;;;38.25;33.00;;;;;24.54;53.10;100878.22;5060735;28;46028;-58
2022/08/18 09:43:06;;;;;;;;;41.50;33.25;;;;;24.78;52.99;100894.44;5060660;28;45312;-58
2022/08/18 09:45:31;;;;;;;;;36.75;32.00;;;;;24.91;52.72;100901.63;5060585;28;45216;-59
2022/08/18 09:47:58;;;;;;;;;37.00;32.25;;;;;25.02;52.84;100895.47;5060278;28;46892;-59
2022/08/18 09:50:27;;;;;;;;;33.50;30.00;;;;;25.16;52.54;100892.63;5064379;28;45342;-58
2022/08/18 09:52:57;;;;;;;;;42.00;33.75;;;;;25.28;52.59;100889.03;5060582;28;45342;-58
2022/08/18 09:55:22;;;;;;;;;35.00;32.00;;;;;25.40;52.14;100891.81;5060190;28;45384;-58
2022/08/18 09:58:28;;;;;;;;;32.50;30.00;;;;;25.51;52.65;100889.19;5063298;28;47202;-58
2022/08/18 10:01:33;;;;;;;;;35.50;32.25;;;;;25.63;51.81;100888.28;5059938;28;45407;-59
2022/08/18 10:04:13;;;;;;;;;27.50;26.00;;;;;25.76;51.51;100872.03;5061939;27;45402;-58
2022/08/18 10:06:46;;;;;;;;;23.00;23.00;;;;;25.85;51.83;100867.78;5069383;28;45425;-58
2022/08/18 10:09:24;;;;;;;;;24.75;23.00;;;;;25.96;51.44;100865.13;5059956;28;45311;-58
2022/08/18 10:12:20;;;;;;;;;24.75;24.00;;;;;26.08;51.37;100862.47;5060091;28;45271;-58
2022/08/18 10:14:51;;;;;;;;;24.50;22.50;;;;;26.25;51.63;100859.31;5060329;28;45395;-58
2022/08/18 10:17:49;;;;;;;;;18.50;17.00;;;;;26.40;50.74;100848.31;5067584;28;45480;-57
2022/08/18 10:20:32;;;;;;;;;25.50;22.25;;;;;26.54;50.55;100848.06;5079614;28;45412;-58
2022/08/18 10:22:57;;;;;;;;;22.00;19.75;;;;;26.70;50.36;100849.53;5078897;28;45335;-58
2022/08/18 10:25:33;;;;;;;;;26.00;21.75;;;;;26.83;50.73;100838.63;5080302;28;45322;-58
2022/08/18 10:28:04;;;;;;;;;19.00;19.00;;;;;26.98;50.45;100840.09;5065325;28;45269;-58
2022/08/18 10:30:32;;;;;;;;;16.50;16.50;;;;;27.16;49.80;100843.09;5069818;27;46806;-58
2022/08/18 10:33:03;;;;;;;;;23.75;20.00;;;;;27.33;50.24;100832.72;5075982;28;45347;-58
2022/08/18 10:35:34;;;;;;;;;21.75;19.25;;;;;27.56;50.09;100831.69;5080452;28;45401;-58
2022/08/18 10:38:01;;;;;;;;;22.25;20.50;;;;;27.85;50.04;100833.72;5079996;28;45513;-58
2022/08/18 10:40:27;;;;;;;;;24.00;23.00;;;;;28.17;49.82;100834.66;5079597;28;45740;-58
2022/08/18 10:43:10;;;;;;;;;23.50;19.75;;;;;28.52;49.94;100831.53;5079935;28;45282;-58
2022/08/18 10:45:42;;;;;;;;;24.25;21.50;;;;;28.89;50.34;100837.34;5080068;28;45223;-58
2022/08/18 10:48:27;;;;;;;;;22.25;22.25;;;;;29.35;49.92;100830.47;5080023;28;45465;-58
2022/08/18 10:51:10;;;;;;;;;25.75;24.75;;;;;29.89;50.20;100819.19;5070906;28;47226;-57
2022/08/18 10:53:49;;;;;;;;;13.75;12.00;;;;;30.39;49.72;100832.41;5081677;28;45410;-58
2022/08/18 10:56:32;;;;;;;;;20.50;20.50;;;;;30.98;49.34;100836.69;5083612;28;45429;-58
2022/08/18 10:59:28;;;;;;;;;23.00;20.75;;;;;31.50;48.62;100833.34;5083256;28;45553;-58
2022/08/18 11:02:22;;;;;;;;;19.00;18.00;;;;;32.09;49.00;100830.88;5082015;28;45578;-56
2022/08/18 11:04:50;;;;;;;;;24.50;22.50;;;;;32.65;48.74;100827.78;5063045;28;45284;-58
2022/08/18 11:07:24;;;;;;;;;23.50;21.00;;;;;33.16;48.35;100842.22;5063105;28;45557;-58
2022/08/18 11:09:55;;;;;;;;;25.50;23.50;;;;;33.63;47.29;100831.72;5062711;28;45347;-56
2022/08/18 11:12:48;;;;;;;;;20.25;17.50;;;;;34.07;46.82;100830.50;5068113;28;45489;-55
2022/08/18 11:15:44;;;;;;;;;24.00;20.25;;;;;34.47;46.47;100825.97;5083153;27;45333;-58
2022/08/18 11:18:09;;;;;;;;;17.00;17.00;;;;;34.85;45.96;100831.56;5082925;28;45398;-58
2022/08/18 11:20:34;;;;;;;;;20.75;16.50;;;;;35.17;44.87;100831.53;5083168;28;45297;-57
2022/08/18 11:23:02;;;;;;;;;17.50;17.00;;;;;35.50;45.39;100829.44;5082876;28;45448;-56
2022/08/18 11:25:30;;;;;;;;;16.00;15.25;;;;;35.85;44.89;100842.59;5082883;28;45327;-56
2022/08/18 11:27:56;;;;;;;;;16.25;15.50;;;;;36.14;44.01;100833.63;5083215;28;45218;-58
2022/08/18 11:30:29;;;;;;;;;14.00;13.50;;;;;36.45;43.74;100832.59;5082936;28;45476;-56
2022/08/18 11:32:54;;;;;;;;;13.50;13.50;;;;;36.67;42.02;100833.50;5082239;28;45502;-58
2022/08/18 11:35:29;;;;;;;;;16.75;16.50;;;;;36.90;42.00;100827.88;5082523;28;45291;-57
2022/08/18 11:37:59;;;;;;;;;18.75;17.75;;;;;37.09;42.08;100833.78;5083045;28;45227;-58
2022/08/18 11:40:46;;;;;;;;;15.75;14.00;;;;;37.32;41.23;100830.84;5082434;28;45377;-56
2022/08/18 11:43:16;;;;;;;;;15.25;15.25;;;;;37.52;41.20;100844.75;5080958;28;47057;-56
2022/08/18 11:45:51;;;;;;;;;16.50;16.25;;;;;37.73;40.56;100854.81;5082568;28;45318;-56
2022/08/18 11:48:44;;;;;;;;;16.75;14.25;;;;;37.98;40.21;100845.34;5082700;28;45272;-56